Ana Sayfa
METAR-TAF:

METAR-TAF

Havaalanları :

Basra Havalimanı

Basra, Irak

Enlem: 30-32-56N, Boylam: 47-39-45E, yükseklik: 1 m

Güncel hava durumu gözlemi

Rapor saat 08:00 UTC de 1 saat ve 6 dakika önce yapıldı.
Rüzgar batı/güneybatıdan 8 kt
Sıcaklık 42°C
Nem 12%
Basınç 1009 hPa
Görüş mesafesi 10 km veya daha fazla
1500 m altında bulut yok ve kümülonimbus yok

METAR: ORMM 250800Z 25008KT CAVOK 42/07 Q1009 NOSIG

Saat: 12:06 (09:06 UTC)

Tahmin

Rapor saat 04:00 UTC de 5 saat ve 6 dakika önce yapıldı.
Ayın 25'si saat 06 UTC'den ayın 26'si saat 06 UTC'ye kadar geçerli Tahmin
Rüzgar değişken yönden 4 kt
Görüş mesafesi 10 km veya daha fazla
1500 m altında bulut yok ve kümülonimbus yok

TAF: ORMM 250400Z 2506/2606 VRB04KT CAVOK

4.000'den fazla havaalanı için hava durumu gözlemleri ve tahminleri (METAR ve TAF raporları).

Kullanılabilir istasyonlar harita üzerinde sarı ve kırmızı noktalarla gösterilir.

İstasyonun adını görmek için fareyi noktanın üzerinde gezdirin.

Sonrasında hava gözlem ve tahminlerini görmek için tıklayın.

Haritayı değiştirmek için: yaklaştırmak için siyah artı işaretli yeşil düğmeye ve uzaklaştırmak için de eksi işaretli düğmeye hızla tıklayın; bitişik haritalar için yeşil okları kullanın.


METAR-TAF: